createdAt,value
2023-11-24T00:07:14.599Z,969.18
2023-11-24T00:17:14.900Z,969.06
2023-11-24T00:27:14.843Z,968.86
2023-11-24T00:37:15.168Z,968.90
2023-11-24T00:47:15.414Z,968.75
2023-11-24T00:57:15.723Z,968.17
2023-11-24T01:07:15.654Z,967.98
2023-11-24T01:17:15.997Z,967.80
2023-11-24T01:27:16.213Z,967.79
2023-11-24T01:37:16.110Z,967.64
2023-11-24T01:47:16.461Z,967.83
2023-11-24T01:57:16.447Z,967.93
2023-11-24T02:07:16.711Z,967.78
2023-11-24T02:17:17.175Z,967.88
2023-11-24T02:27:16.779Z,967.53
2023-11-24T02:37:17.254Z,967.60
2023-11-24T02:47:17.202Z,967.27
2023-11-24T02:57:17.303Z,967.17
2023-11-24T03:07:17.761Z,967.12
2023-11-24T03:17:17.654Z,967.01
2023-11-24T03:27:18.010Z,967.13
2023-11-24T03:37:18.317Z,966.83
2023-11-24T03:47:18.261Z,966.58
2023-11-24T03:57:18.557Z,966.37
2023-11-24T04:07:18.846Z,966.24
2023-11-24T04:17:18.813Z,966.23
2023-11-24T04:27:19.068Z,966.05
2023-11-24T04:37:19.335Z,965.95
2023-11-24T04:47:19.314Z,965.65
2023-11-24T04:57:19.624Z,965.64
2023-11-24T05:07:19.575Z,965.33
2023-11-24T05:17:19.861Z,965.36
2023-11-24T05:27:19.807Z,966.25
2023-11-24T05:37:20.430Z,966.46
2023-11-24T05:47:20.388Z,966.39
2023-11-24T05:57:20.679Z,966.49
2023-11-24T06:07:20.629Z,966.58
2023-11-24T06:17:20.913Z,966.43
2023-11-24T06:27:20.864Z,966.24
2023-11-24T06:37:21.189Z,966.36
2023-11-24T06:47:21.266Z,966.23
2023-11-24T06:57:21.717Z,966.09
2023-11-24T07:07:21.976Z,965.77
2023-11-24T07:17:22.275Z,965.57
2023-11-24T07:27:22.228Z,965.60
2023-11-24T07:37:22.535Z,965.58
2023-11-24T07:47:22.489Z,965.49
2023-11-24T07:57:22.771Z,965.48
2023-11-24T08:07:23.105Z,965.18
2023-11-24T08:17:23.351Z,965.20
2023-11-24T08:27:23.281Z,964.98
2023-11-24T08:37:23.283Z,964.77
2023-11-24T08:47:23.532Z,964.65
2023-11-24T08:57:23.860Z,964.64
2023-11-24T09:07:24.124Z,964.49
2023-11-24T09:17:24.074Z,964.38
2023-11-24T09:27:24.031Z,964.45
2023-11-24T09:37:24.647Z,964.30
2023-11-24T09:47:24.631Z,964.16
2023-11-24T09:57:24.581Z,964.01
2023-11-24T10:07:24.836Z,963.86
2023-11-24T10:17:25.187Z,963.52
2023-11-24T10:27:25.098Z,963.28
2023-11-24T10:37:25.395Z,963.13
2023-11-24T10:47:25.662Z,963.12
2023-11-24T10:57:25.636Z,962.90
2023-11-24T11:07:25.886Z,962.66
2023-11-24T11:17:26.246Z,962.50
2023-11-24T11:27:26.132Z,962.18
2023-11-24T11:37:26.162Z,961.82
2023-11-24T11:47:26.400Z,961.93
2023-11-24T11:57:26.699Z,961.70
2023-11-24T12:07:27.855Z,961.47
2023-11-24T12:17:26.933Z,961.31
2023-11-24T12:27:27.192Z,961.33
2023-11-24T12:37:27.186Z,961.52
2023-11-24T12:47:41.795Z,961.54
2023-11-24T12:57:28.675Z,961.45
2023-11-24T13:07:27.730Z,961.62
2023-11-24T13:17:27.988Z,961.57
2023-11-24T13:27:27.928Z,961.35
2023-11-24T13:37:29.885Z,961.60
2023-11-24T13:47:28.194Z,961.77
2023-11-24T13:57:28.486Z,961.52
2023-11-24T14:07:28.743Z,961.34
2023-11-24T14:17:28.971Z,961.10
2023-11-24T14:27:28.992Z,961.17
2023-11-24T14:37:29.398Z,960.96
2023-11-24T14:47:29.620Z,960.90
2023-11-24T14:57:29.535Z,960.57
2023-11-24T15:07:29.860Z,960.72
2023-11-24T15:17:29.901Z,960.91
2023-11-24T15:27:30.044Z,962.01
2023-11-24T15:37:30.350Z,961.76
2023-11-24T15:47:30.478Z,961.75
2023-11-24T15:57:30.609Z,961.76
2023-11-24T16:07:30.991Z,961.74
2023-11-24T16:17:30.952Z,961.80
2023-11-24T16:27:31.412Z,962.10
2023-11-24T16:37:31.274Z,962.28
2023-11-24T16:47:31.409Z,962.31
2023-11-24T16:57:31.349Z,962.43
2023-11-24T17:07:31.613Z,962.47
2023-11-24T17:17:31.933Z,962.49
2023-11-24T17:27:31.857Z,962.71
2023-11-24T17:37:32.148Z,962.90
2023-11-24T17:47:32.512Z,962.92
2023-11-24T17:57:32.275Z,962.71
2023-11-24T18:07:32.714Z,962.64
2023-11-24T18:17:32.660Z,962.64
2023-11-24T18:27:32.939Z,962.57
2023-11-24T18:37:33.528Z,962.36
2023-11-24T18:47:33.340Z,962.20
2023-11-24T18:57:33.462Z,962.13
2023-11-24T19:07:33.723Z,962.15
2023-11-24T19:17:33.743Z,962.18
2023-11-24T19:27:33.951Z,962.34
2023-11-24T19:37:34.277Z,962.36
2023-11-24T19:47:34.519Z,962.34
2023-11-24T19:57:34.507Z,962.12
2023-11-24T20:07:34.786Z,962.05
2023-11-24T20:17:34.947Z,962.15
2023-11-24T20:27:34.783Z,962.05
2023-11-24T20:37:34.932Z,961.96
2023-11-24T20:47:35.032Z,961.96
2023-11-24T20:57:35.166Z,961.83
2023-11-24T21:07:35.374Z,961.68
2023-11-24T21:17:35.857Z,961.59
2023-11-24T21:27:35.755Z,961.63
2023-11-24T21:37:36.122Z,961.59
2023-11-24T21:47:36.027Z,961.54
2023-11-24T21:57:36.120Z,961.51
2023-11-24T22:07:37.076Z,961.49
2023-11-24T22:17:36.677Z,961.52
2023-11-24T22:27:36.582Z,961.47
2023-11-24T22:37:36.821Z,961.73
2023-11-24T22:47:36.989Z,961.62
2023-11-24T22:57:37.176Z,961.60
2023-11-24T23:07:37.495Z,961.35
2023-11-24T23:17:37.634Z,961.24
2023-11-24T23:27:37.640Z,961.17
2023-11-24T23:37:37.882Z,961.25
2023-11-24T23:47:38.093Z,961.12
2023-11-24T23:57:38.234Z,961.25
